Overview Statistics Trail Chart Weather Telemetry Raw packets
 

This is the latest recevied weather packets stored in our database for station/object DL0BB-10. If no packets are shown the sender has not sent any weather packets the latest 10 day(s).

<< 4 5 6 7 8 9 10 >>
Time Temp. Humidity Pressure Rain* Wind** Luminosity Snow
1788583498 26.11° C 40% 1021.2 hPa - - - -
1788582598 26.67° C 40% 1020.9 hPa - - - -
1788581698 27.22° C 39% 1020.6 hPa - - - -
1788580797 27.22° C 38% 1020.7 hPa - - - -
1788579907 26.67° C 40% 1020.6 hPa - - - -
1788578996 26.67° C 39% 1020.6 hPa - - - -
1788578096 27.22° C 38% 1020.3 hPa - - - -
1788577195 27.22° C 39% 1020.6 hPa - - - -
1788576300 26.67° C 39% 1020.9 hPa - - - -
1788575400 27.22° C 39% 1020.8 hPa - - - -
1788574499 27.78° C 37% 1020.7 hPa - - - -
1788573599 26.67° C 40% 1020.7 hPa - - - -
1788572699 27.22° C 39% 1020.4 hPa - - - -
1788571799 27.78° C 38% 1020.4 hPa - - - -
1788570899 27.78° C 38% 1019.4 hPa - - - -
1788569999 27.22° C 39% 1019.1 hPa - - - -
1788569099 27.22° C 38% 1018.9 hPa - - - -
1788568199 28.33° C 37% 1018.7 hPa - - - -
1788567298 27.22° C 39% 1018.6 hPa - - - -
1788566398 27.22° C 39% 1018.4 hPa - - - -
1788565498 27.78° C 37% 1018.4 hPa - - - -
1788564598 27.78° C 38% 1018.1 hPa - - - -
1788563698 27.22° C 39% 1018.1 hPa - - - -
1788562798 27.78° C 38% 1018 hPa - - - -
1788561898 28.33° C 37% 1017.7 hPa - - - -

* Rain since midnight (hover to see other rain measurements)
** Current wind speed in m/s (hover to see current wind gust speed)